Macy, NE (68039)

8:50 PM CST on February 07, 2016 (GMT -0600)
Prairie Oaks Lane | | Change Station
CLOSE
Current Station
Personal Weather Station
Location: West Point, NE
Elevation: 1388 ft
Nearby Weather Stations
Active Advisory: Wind Advisory Active Notice: Public Information Statement

Elev 1388 ft 41.91 °N, 96.64 °W | Updated 16 seconds ago

Snow
Snow
31.8 °F
Feels Like 24 °F
N
8.9
Wind Variable Wind from NW
Gusts 9.8 mph

Today
High -- | Low -- °F
--% Chance of Precip.
Yesterday
High -- | Low -- °F
Precip. -- in
Pressure 30.00 in
Visibility 7.0 miles
Clouds Scattered Clouds 2500 ft
Mostly Cloudy 2900 ft
Overcast 4400 ft
Windchill 24 °F
Dew Point 26 °F
Humidity 77%
Rainfall 0.00 in
Snow Depth Not available.
7:32 AM 5:48 PM
Waning Crescent, 0% visible
METAR KLCG 080235Z AUTO 32026G36KT 7SM SCT025 BKN029 OVC044 00/M03 A3000 RMK AO2 T10031031
Pressure 30.00 in
Visibility 7.0 miles
Clouds Scattered Clouds 2500 ft
Mostly Cloudy 2900 ft
Overcast 4400 ft
Windchill 24 °F
Dew Point 26 °F
Humidity 77%
Rainfall 0.00 in
Snow Depth Not available.
7:32 AM 5:48 PM
Waning Crescent, 0% visible
METAR KLCG 080235Z AUTO 32026G36KT 7SM SCT025 BKN029 OVC044 00/M03 A3000 RMK AO2 T10031031

10-Day Weather Forecast

Almanac

Astronomy

Feb. 07, 2016 Rise Set
Actual Time
Civil Twilight
Nautical Twilight
Astronomical Twilight
Moon
Length of Visible Light
Length of Day
Tomorrow will be .
, % of the Moon is Illuminated

Today's Extremes

State Highs State Lows

Community

WunderPhotos

Upload Photos

1,891,373 photos uploaded!

WunderBlog® & News

Nearby

Air Quality

  Air Quality AQ Index Pollutant
Not available.

Snow Depth

Station Depth Elevation

Earthquake Activity

City Distance Mag. Time & Date
Minimum magnitude displayed is 2.5.

Coastal Water Temperatures

Place Temperature

Stations

Nearby Weather Stations

Station Location Temp. Windchill Dew Point Humidity Wind Precip. Elev Updated Type
                   

Watches & Warnings

Wind Advisory
Issued: 7:53 PM CST Feb. 7, 2016 – National Weather Service

... Wind Advisory remains in effect until noon CST Monday...

* timing... strong northwest winds will continue through Monday
morning.

* Winds... northwest winds of 30 to 40 mph with gusts to 50 mph.

* Impacts... winds of this magnitude will be hazardous to
motorists... especially those with high profile vehicles. In
addition... snow showers this evening and overnight may lead to
areas of blowing snow. This may create hazardous travel
conditions in parts of the area.

Precautionary/preparedness actions...

A Wind Advisory means that sustained wind speeds between 30 to
39 mph or gusts between 45 to 57 mph are expected. Winds this
strong can make driving difficult... especially for high profile
vehicles. Use extra caution.